SBY - Salisbury Ocean City Wicomico Rgnl

Pirep is a free, collaborative database of all public and private airports located within the United States. All pilots are welcome to contribute, edit, and improve any airport they have local knowledge about, no registration required.
Are you familiar with this airport? Help out other pilots by adding your local knowledge.
Uploaded photos will be licensed under a CC BY-SA 4.0 license. Please only upload photos you have the rights to use.
Tags
Public
Undocu­mented
METAR / TAF
Edit Tags
Food
Camping
Lodging
Car Rental
Bicycles
Swimming
Golfing
Fishing
Hot Springs
Museum
Flying Clubs
Airpark
Upcoming Events
No upcoming events. Is anything happening here soon?
*
*
*

Where exactly on/near the airport is this event taking place?

Is there a webpage with more information for this event?

Who should be contacted for more information?

What is this event all about?

Repeat every
Description
Transient Parking
Fuel Location
Landing & Tie-down Fees
Crew Car Availability
Flying Clubs
WiFi Access
Airport Statistics
Location: Salisbury, MD
Elevation: 52ft
Sectional: Washington
Activation date: Feb 1944
Fuel: 100LL, A (prices)
Runway 14/32: 6,400ft
Runway 05/23: 5,000ft
Access: Open to the public
Current Weather — VFR
  • Weather data is strictly informational and not for flight planning purposes.
  • METAR
    2024-05-28 17:54:00 EDT
    Ceiling Wind Temperature Dewpoint Weather Visbility
    Sky clear 260° @ 12kt 80°F 57°F N/A 10SM
    Raw: KSBY 282154Z 26012KT 10SM CLR 27/14 A2982 RMK AO2 SLP101 T02670139
  • TAF
    2024-05-28 14:00:00 EDT – 2024-05-28 19:00:00 EDT
    Ceiling Wind Weather Visbility
    Sky clear 270° @ 10kt N/A 6SM
    Clouds: Few @ 7,000ft
    Raw: KSBY 281720Z 2818/2918 27010KT P6SM FEW070 FM282300 VRB03KT P6SM SKC FM291400 31006KT P6SM FEW060
  • TAF
    2024-05-28 19:00:00 EDT – 2024-05-29 10:00:00 EDT
    Ceiling Wind Weather Visbility
    Sky clear Variable N/A 6SM
    Clouds: @ ft
    Raw: KSBY 281720Z 2818/2918 27010KT P6SM FEW070 FM282300 VRB03KT P6SM SKC FM291400 31006KT P6SM FEW060
  • TAF
    2024-05-29 10:00:00 EDT – 2024-05-29 14:00:00 EDT
    Ceiling Wind Weather Visbility
    Sky clear 310° @ 6kt N/A 6SM
    Clouds: Few @ 6,000ft
    Raw: KSBY 281720Z 2818/2918 27010KT P6SM FEW070 FM282300 VRB03KT P6SM SKC FM291400 31006KT P6SM FEW060
Click/tap to add an annotation marker to the map
Airport Webcams
No webcams added yet.
Direct links to live image URLs will be displayed inline on this page. URLs to separate webpages will be linked to.
URL:
Direct links to live image URLs will be displayed inline on this page. URLs to separate webpages will be linked to.
URL:
Remarks
  • Prior to 1959.
  • 24 hr ppr rqr for unsked acr ops ctc amgr.
  • Mil trng act, deer & birds on & invof arpt.
  • Fbo hrs 0700-1900lcl. for services after hrs call 410-749-0323.
  • For cd ctc patuxent apch at 301-342-3740, when patuxent apch is clsd ctc potomac apch at 866-640-4124.
Comments
Leave a comment What was your experience like at this airport?